createdAt,value
2022-10-08T00:02:08.705Z,99.99
2022-10-08T00:04:26.813Z,99.99
2022-10-08T00:07:15.529Z,99.99
2022-10-08T00:14:51.562Z,99.99
2022-10-08T00:17:32.893Z,99.99
2022-10-08T00:20:38.673Z,99.99
2022-10-08T00:23:16.501Z,99.99
2022-10-08T00:25:35.436Z,99.99
2022-10-08T00:27:51.196Z,99.99
2022-10-08T00:30:09.317Z,99.99
2022-10-08T00:32:33.840Z,99.99
2022-10-08T00:34:51.305Z,99.99
2022-10-08T00:37:09.413Z,99.99
2022-10-08T00:39:24.039Z,99.99
2022-10-08T00:41:38.606Z,99.99
2022-10-08T00:44:45.735Z,99.99
2022-10-08T00:47:04.649Z,99.99
2022-10-08T00:50:03.595Z,99.99
2022-10-08T00:51:03.453Z,99.99
2022-10-08T00:53:57.577Z,99.99
2022-10-08T01:06:05.206Z,99.99
2022-10-08T01:08:23.281Z,99.99
2022-10-08T01:10:54.185Z,99.99
2022-10-08T01:13:16.753Z,99.99
2022-10-08T01:18:14.041Z,99.99
2022-10-08T01:22:39.759Z,99.99
2022-10-08T01:38:29.080Z,99.99
2022-10-08T01:53:30.574Z,99.99
2022-10-08T01:55:48.741Z,99.99
2022-10-08T01:58:06.753Z,99.99
2022-10-08T02:00:23.660Z,99.99
2022-10-08T02:02:42.106Z,99.99
2022-10-08T02:05:00.150Z,99.99
2022-10-08T02:07:16.716Z,99.99
2022-10-08T02:09:33.299Z,99.99
2022-10-08T02:11:51.437Z,99.99
2022-10-08T02:14:12.037Z,99.99
2022-10-08T02:16:30.195Z,99.99
2022-10-08T02:18:50.740Z,99.99
2022-10-08T02:21:46.697Z,99.99
2022-10-08T02:24:03.826Z,99.99
2022-10-08T02:26:20.416Z,99.99
2022-10-08T02:28:38.033Z,99.99
2022-10-08T02:30:56.100Z,99.99
2022-10-08T02:33:16.730Z,99.99
2022-10-08T02:35:44.236Z,99.99
2022-10-08T02:40:54.416Z,99.99
2022-10-08T02:45:06.912Z,99.99
2022-10-08T02:49:47.809Z,99.99
2022-10-08T03:03:16.379Z,99.99
2022-10-08T03:08:59.206Z,99.99
2022-10-08T03:11:32.853Z,99.99
2022-10-08T03:14:48.376Z,99.99
2022-10-08T03:17:51.603Z,99.99
2022-10-08T03:20:21.460Z,99.99
2022-10-08T03:22:40.348Z,99.99
2022-10-08T03:39:50.855Z,99.99
2022-10-08T03:42:11.806Z,99.99
2022-10-08T03:46:58.300Z,99.99
2022-10-08T03:54:20.920Z,99.99
2022-10-08T03:57:07.469Z,99.99
2022-10-08T04:11:52.171Z,99.99
2022-10-08T04:14:08.718Z,99.99
2022-10-08T04:16:28.094Z,99.99
2022-10-08T04:18:42.703Z,99.99
2022-10-08T04:20:57.624Z,99.99
2022-10-08T04:23:14.516Z,99.99
2022-10-08T04:25:32.907Z,99.99
2022-10-08T04:27:50.994Z,99.99
2022-10-08T04:30:09.096Z,99.99
2022-10-08T04:32:27.169Z,99.99
2022-10-08T04:34:44.067Z,99.99
2022-10-08T04:37:05.750Z,99.99
2022-10-08T04:39:24.843Z,99.99
2022-10-08T04:42:19.854Z,99.99
2022-10-08T04:44:37.917Z,99.99
2022-10-08T04:46:55.172Z,99.99
2022-10-08T04:49:13.519Z,99.99
2022-10-08T04:51:32.927Z,99.99
2022-10-08T04:53:51.006Z,99.99
2022-10-08T04:56:11.602Z,99.99
2022-10-08T04:58:29.697Z,99.99
2022-10-08T05:00:47.802Z,99.99
2022-10-08T05:03:08.498Z,99.99
2022-10-08T05:05:24.986Z,99.99
2022-10-08T05:07:43.091Z,99.99
2022-10-08T05:10:01.151Z,99.99
2022-10-08T05:12:17.734Z,99.99
2022-10-08T05:14:35.866Z,99.99
2022-10-08T05:16:54.306Z,99.99
2022-10-08T05:19:11.781Z,99.99
2022-10-08T05:21:29.864Z,99.99
2022-10-08T05:23:46.465Z,99.99
2022-10-08T05:26:06.784Z,99.99
2022-10-08T05:28:24.908Z,99.99
2022-10-08T05:30:42.965Z,99.99
2022-10-08T05:32:58.580Z,99.99
2022-10-08T05:35:15.478Z,99.99
2022-10-08T05:37:33.615Z,99.99
2022-10-08T05:39:51.688Z,99.99
2022-10-08T05:42:09.790Z,99.99
2022-10-08T05:44:25.368Z,99.99
2022-10-08T05:46:41.969Z,99.99
2022-10-08T05:49:00.073Z,99.99
2022-10-08T05:51:19.191Z,99.99
2022-10-08T05:53:38.297Z,99.99
2022-10-08T05:55:54.881Z,99.99
2022-10-08T05:58:11.436Z,99.99
2022-10-08T06:00:29.579Z,99.99
2022-10-08T06:02:50.843Z,99.99
2022-10-08T06:05:09.131Z,99.99
2022-10-08T06:07:26.347Z,99.99
2022-10-08T06:09:44.428Z,99.99
2022-10-08T06:12:02.567Z,99.99
2022-10-08T06:14:17.176Z,99.99
2022-10-08T06:16:35.353Z,99.99
2022-10-08T06:18:51.829Z,99.99
2022-10-08T06:21:09.422Z,99.99
2022-10-08T06:23:26.818Z,99.99
2022-10-08T06:25:44.920Z,99.99
2022-10-08T06:28:03.043Z,99.99
2022-10-08T06:30:21.107Z,99.99
2022-10-08T06:32:39.216Z,99.99
2022-10-08T06:34:57.318Z,99.99
2022-10-08T06:37:15.402Z,99.99
2022-10-08T06:39:31.004Z,99.99
2022-10-08T06:41:47.592Z,99.99
2022-10-08T06:44:05.743Z,99.99
2022-10-08T06:57:49.084Z,99.99
2022-10-08T07:02:03.636Z,99.99
2022-10-08T07:05:55.144Z,99.99
2022-10-08T07:12:14.647Z,99.99
2022-10-08T07:14:35.721Z,99.99
2022-10-08T07:16:48.411Z,99.99
2022-10-08T07:19:07.108Z,99.99
2022-10-08T07:21:22.864Z,99.99
2022-10-08T07:23:44.652Z,99.99
2022-10-08T07:26:03.336Z,99.99
2022-10-08T07:28:37.106Z,99.99
2022-10-08T07:31:08.996Z,99.99
2022-10-08T07:33:56.082Z,99.99
2022-10-08T07:38:34.601Z,99.99
2022-10-08T07:40:52.503Z,99.79
2022-10-08T07:43:05.694Z,98.11
2022-10-08T07:45:32.950Z,97.34
2022-10-08T07:47:42.835Z,96.23
2022-10-08T07:50:03.889Z,96.34
2022-10-08T07:52:21.981Z,95.42
2022-10-08T07:54:40.094Z,93.74
2022-10-08T07:57:00.653Z,92.44
2022-10-08T07:59:21.225Z,90.97
2022-10-08T08:01:40.284Z,89.34
2022-10-08T08:03:56.927Z,88.93
2022-10-08T08:06:14.849Z,89.14
2022-10-08T08:08:30.289Z,89.24
2022-10-08T08:10:46.741Z,87.87
2022-10-08T08:13:08.422Z,87.63
2022-10-08T08:15:29.154Z,85.21
2022-10-08T08:17:47.168Z,84.63
2022-10-08T08:20:05.295Z,84.77
2022-10-08T08:22:20.823Z,85.17
2022-10-08T08:24:36.307Z,84.26
2022-10-08T08:26:57.597Z,85.72
2022-10-08T08:29:09.388Z,85.41
2022-10-08T08:31:25.824Z,84.91
2022-10-08T08:33:42.082Z,86.02
2022-10-08T08:36:02.856Z,85.86
2022-10-08T08:38:23.933Z,86.88
2022-10-08T08:40:44.655Z,86.88
2022-10-08T08:43:02.970Z,86.65
2022-10-08T08:45:44.764Z,84.18
2022-10-08T08:46:21.642Z,84.34
2022-10-08T08:48:37.617Z,83.43
2022-10-08T08:50:54.214Z,80.96
2022-10-08T08:53:16.442Z,81.77
2022-10-08T08:55:31.801Z,82.64
2022-10-08T08:57:48.381Z,82.30
2022-10-08T08:58:48.990Z,82.50
2022-10-08T09:01:06.465Z,80.01
2022-10-08T09:03:40.723Z,81.43
2022-10-08T09:07:58.832Z,81.12
2022-10-08T09:10:18.804Z,79.40
2022-10-08T09:12:34.553Z,79.80
2022-10-08T09:15:32.938Z,80.88
2022-10-08T09:18:29.650Z,79.97
2022-10-08T09:21:19.962Z,79.53
2022-10-08T09:23:48.883Z,78.86
2022-10-08T09:26:09.538Z,79.60
2022-10-08T09:28:41.123Z,80.21
2022-10-08T09:31:17.028Z,80.41
2022-10-08T09:41:28.849Z,78.58
2022-10-08T09:46:25.688Z,78.72
2022-10-08T09:55:08.019Z,80.34
2022-10-08T09:57:23.670Z,80.24
2022-10-08T09:59:37.047Z,79.46
2022-10-08T10:01:52.645Z,80.07
2022-10-08T10:05:46.111Z,81.49
2022-10-08T10:08:07.705Z,80.47
2022-10-08T10:10:41.150Z,79.77
2022-10-08T10:13:11.234Z,80.74
2022-10-08T10:15:37.820Z,79.77
2022-10-08T10:19:31.936Z,81.32
2022-10-08T10:21:47.433Z,82.48
2022-10-08T10:24:11.466Z,82.52
2022-10-08T10:26:27.057Z,83.57
2022-10-08T10:28:58.896Z,84.28
2022-10-08T10:33:49.461Z,84.38
2022-10-08T10:39:40.387Z,84.38
2022-10-08T11:02:32.440Z,82.11
2022-10-08T11:04:51.195Z,83.43
2022-10-08T11:07:46.123Z,82.76
2022-10-08T11:10:04.232Z,82.86
2022-10-08T11:14:24.663Z,82.45
2022-10-08T11:16:46.756Z,82.21
2022-10-08T11:19:13.167Z,82.98
2022-10-08T11:22:09.274Z,81.23
2022-10-08T11:25:09.900Z,80.76
2022-10-08T11:27:57.205Z,81.26
2022-10-08T11:30:19.392Z,80.92
2022-10-08T11:32:36.139Z,82.14
2022-10-08T11:34:57.774Z,83.45
2022-10-08T11:37:48.663Z,84.47
2022-10-08T11:40:20.641Z,82.64
2022-10-08T11:42:49.604Z,81.83
2022-10-08T11:45:19.150Z,82.30
2022-10-08T11:47:34.471Z,81.05
2022-10-08T11:50:15.564Z,80.44
2022-10-08T11:52:42.435Z,80.68
2022-10-08T11:55:08.606Z,81.29
2022-10-08T11:57:35.150Z,79.49
2022-10-08T11:58:27.644Z,78.17
2022-10-08T12:00:43.948Z,78.01
2022-10-08T12:02:59.713Z,80.54
2022-10-08T12:05:18.619Z,78.45
2022-10-08T12:07:35.259Z,81.02
2022-10-08T12:09:50.894Z,81.02
2022-10-08T12:12:08.940Z,81.26
2022-10-08T12:14:40.512Z,81.81
2022-10-08T12:18:29.412Z,81.85
2022-10-08T12:22:18.881Z,83.17
2022-10-08T12:24:38.767Z,82.96
2022-10-08T12:27:19.228Z,82.62
2022-10-08T12:29:59.668Z,82.07
2022-10-08T12:35:17.940Z,80.55
2022-10-08T12:37:34.780Z,80.86
2022-10-08T12:40:33.328Z,79.03
2022-10-08T12:59:15.320Z,77.01
2022-10-08T13:04:21.852Z,76.80
2022-10-08T13:07:10.983Z,76.50
2022-10-08T13:09:29.082Z,77.61
2022-10-08T13:11:49.693Z,77.01
2022-10-08T13:14:02.779Z,75.89
2022-10-08T13:16:18.387Z,77.07
2022-10-08T13:18:31.427Z,76.12
2022-10-08T13:20:43.542Z,74.71
2022-10-08T13:22:56.855Z,76.32
2022-10-08T13:25:12.203Z,73.96
2022-10-08T13:27:24.283Z,74.98
2022-10-08T13:29:37.900Z,73.76
2022-10-08T13:31:52.442Z,74.13
2022-10-08T13:34:07.015Z,75.14
2022-10-08T13:36:40.186Z,73.02
2022-10-08T13:38:31.249Z,74.54
2022-10-08T13:40:44.837Z,73.76
2022-10-08T13:42:56.970Z,74.40
2022-10-08T13:45:10.038Z,74.51
2022-10-08T13:47:31.681Z,75.35
2022-10-08T13:49:43.777Z,75.28
2022-10-08T13:51:57.362Z,75.89
2022-10-08T13:54:10.938Z,74.57
2022-10-08T13:56:24.531Z,77.58
2022-10-08T13:58:38.100Z,76.87
2022-10-08T14:00:51.773Z,76.06
2022-10-08T14:03:05.269Z,75.69
2022-10-08T14:05:18.352Z,74.77
2022-10-08T14:07:31.933Z,73.86
2022-10-08T14:09:44.014Z,74.77
2022-10-08T14:11:56.086Z,81.10
2022-10-08T14:14:09.488Z,83.71
2022-10-08T14:16:22.633Z,83.83
2022-10-08T14:18:37.186Z,89.59
2022-10-08T14:20:50.798Z,87.16
2022-10-08T14:23:04.370Z,89.96
2022-10-08T14:25:19.935Z,90.47
2022-10-08T14:27:33.043Z,93.22
2022-10-08T14:29:46.653Z,91.55
2022-10-08T14:31:58.696Z,90.69
2022-10-08T14:34:10.767Z,92.27
2022-10-08T14:36:26.337Z,90.24
2022-10-08T14:38:40.946Z,88.77
2022-10-08T14:40:57.523Z,91.52
2022-10-08T14:43:13.302Z,88.87
2022-10-08T14:45:25.449Z,87.51
2022-10-08T14:47:37.490Z,86.69
2022-10-08T14:49:53.073Z,86.04
2022-10-08T14:52:11.132Z,88.18
2022-10-08T14:54:30.263Z,86.41
2022-10-08T14:56:48.418Z,86.61
2022-10-08T14:59:02.474Z,84.38
2022-10-08T15:01:18.072Z,85.53
2022-10-08T15:03:31.159Z,83.40
2022-10-08T15:05:46.698Z,83.50
2022-10-08T15:08:01.275Z,81.81
2022-10-08T15:10:14.869Z,83.58
2022-10-08T15:12:29.466Z,84.84
2022-10-08T15:14:42.513Z,85.28
2022-10-08T15:16:56.156Z,86.61
2022-10-08T15:19:08.213Z,85.80
2022-10-08T15:21:22.776Z,86.65
2022-10-08T15:24:35.958Z,86.96
2022-10-08T15:27:06.558Z,86.65
2022-10-08T15:29:26.516Z,88.39
2022-10-08T15:37:22.499Z,88.22
2022-10-08T15:45:06.380Z,88.73
2022-10-08T15:48:21.633Z,89.59
2022-10-08T15:50:37.208Z,88.47
2022-10-08T15:52:53.830Z,88.67
2022-10-08T15:55:10.054Z,89.49
2022-10-08T15:57:23.130Z,89.49
2022-10-08T15:59:40.311Z,90.00
2022-10-08T16:25:52.946Z,93.66
2022-10-08T16:40:18.296Z,93.40
2022-10-08T16:43:07.643Z,93.91
2022-10-08T16:45:26.405Z,93.95
2022-10-08T16:47:43.215Z,94.26
2022-10-08T16:50:01.445Z,94.92
2022-10-08T17:19:44.875Z,96.48
2022-10-08T17:24:24.948Z,96.38
2022-10-08T17:27:28.737Z,97.04
2022-10-08T17:34:21.858Z,98.52
2022-10-08T17:37:03.598Z,98.93
2022-10-08T17:47:38.106Z,99.54
2022-10-08T17:50:02.937Z,99.38
2022-10-08T17:52:18.507Z,99.85
2022-10-08T17:54:37.488Z,99.54
2022-10-08T17:56:54.192Z,99.75
2022-10-08T17:59:09.677Z,99.85
2022-10-08T18:01:36.199Z,99.65
2022-10-08T18:04:37.962Z,99.28
2022-10-08T18:06:50.926Z,99.38
2022-10-08T18:09:17.444Z,99.84
2022-10-08T18:24:45.737Z,99.99
2022-10-08T19:03:18.254Z,99.99
2022-10-08T19:06:45.465Z,99.99
2022-10-08T19:09:00.779Z,99.99
2022-10-08T19:11:17.965Z,99.99
2022-10-08T19:13:42.171Z,99.99
2022-10-08T19:16:18.141Z,99.99
2022-10-08T19:18:39.519Z,99.99
2022-10-08T19:20:59.781Z,99.99
2022-10-08T19:23:20.402Z,99.99
2022-10-08T19:25:49.758Z,99.99
2022-10-08T19:28:52.607Z,99.99
2022-10-08T19:31:13.208Z,99.99
2022-10-08T19:33:34.621Z,99.99
2022-10-08T19:35:52.014Z,99.99
2022-10-08T19:47:15.924Z,99.99
2022-10-08T19:49:38.592Z,99.99
2022-10-08T20:09:59.476Z,99.99
2022-10-08T20:12:39.324Z,99.99
2022-10-08T20:15:40.867Z,99.99
2022-10-08T20:18:03.572Z,99.99
2022-10-08T20:22:19.143Z,99.99
2022-10-08T20:24:35.808Z,99.99
2022-10-08T21:03:51.284Z,99.99
2022-10-08T21:06:09.994Z,99.99
